sensor_id;sensor_type;location;lat;lon;timestamp;P1;durP1;ratioP1;P2;durP2;ratioP2
14584;SDS011;7379;51.506;11.876;2023-03-01T00:01:40;10.00;;;8.33;;
14584;SDS011;7379;51.506;11.876;2023-03-01T00:04:07;10.20;;;9.10;;
14584;SDS011;7379;51.506;11.876;2023-03-01T00:06:35;11.57;;;8.17;;
14584;SDS011;7379;51.506;11.876;2023-03-01T00:09:02;9.50;;;8.27;;
14584;SDS011;7379;51.506;11.876;2023-03-01T00:11:29;10.47;;;8.47;;
14584;SDS011;7379;51.506;11.876;2023-03-01T00:13:58;10.57;;;8.30;;
14584;SDS011;7379;51.506;11.876;2023-03-01T00:16:27;11.10;;;8.57;;
14584;SDS011;7379;51.506;11.876;2023-03-01T00:18:57;12.40;;;9.20;;
14584;SDS011;7379;51.506;11.876;2023-03-01T00:21:24;11.33;;;9.37;;
14584;SDS011;7379;51.506;11.876;2023-03-01T00:23:53;11.73;;;9.43;;
14584;SDS011;7379;51.506;11.876;2023-03-01T00:26:21;11.83;;;9.33;;
14584;SDS011;7379;51.506;11.876;2023-03-01T00:28:48;11.80;;;8.93;;
14584;SDS011;7379;51.506;11.876;2023-03-01T00:31:16;10.40;;;8.80;;
14584;SDS011;7379;51.506;11.876;2023-03-01T00:33:45;10.67;;;9.20;;
14584;SDS011;7379;51.506;11.876;2023-03-01T00:36:14;13.40;;;9.30;;
14584;SDS011;7379;51.506;11.876;2023-03-01T00:38:42;13.60;;;9.97;;
14584;SDS011;7379;51.506;11.876;2023-03-01T00:41:11;11.77;;;9.60;;
14584;SDS011;7379;51.506;11.876;2023-03-01T00:43:40;12.90;;;9.77;;
14584;SDS011;7379;51.506;11.876;2023-03-01T00:46:07;13.23;;;9.87;;
14584;SDS011;7379;51.506;11.876;2023-03-01T00:48:35;13.63;;;9.83;;
14584;SDS011;7379;51.506;11.876;2023-03-01T00:51:05;12.83;;;9.93;;
14584;SDS011;7379;51.506;11.876;2023-03-01T00:53:34;13.90;;;9.67;;
14584;SDS011;7379;51.506;11.876;2023-03-01T00:56:02;14.03;;;9.53;;
14584;SDS011;7379;51.506;11.876;2023-03-01T00:58:30;12.33;;;10.07;;
14584;SDS011;7379;51.506;11.876;2023-03-01T01:00:57;11.37;;;9.40;;
14584;SDS011;7379;51.506;11.876;2023-03-01T01:03:24;12.57;;;9.77;;
14584;SDS011;7379;51.506;11.876;2023-03-01T01:05:51;12.43;;;9.60;;
14584;SDS011;7379;51.506;11.876;2023-03-01T01:08:18;13.60;;;9.43;;
14584;SDS011;7379;51.506;11.876;2023-03-01T01:10:46;12.93;;;9.93;;
14584;SDS011;7379;51.506;11.876;2023-03-01T01:13:13;12.10;;;9.83;;
14584;SDS011;7379;51.506;11.876;2023-03-01T01:15:40;12.30;;;9.63;;
14584;SDS011;7379;51.506;11.876;2023-03-01T01:18:07;11.20;;;9.37;;
14584;SDS011;7379;51.506;11.876;2023-03-01T01:20:34;11.80;;;9.50;;
14584;SDS011;7379;51.506;11.876;2023-03-01T01:23:02;12.10;;;9.47;;
14584;SDS011;7379;51.506;11.876;2023-03-01T01:25:33;12.90;;;9.73;;
14584;SDS011;7379;51.506;11.876;2023-03-01T01:28:02;13.37;;;9.87;;
14584;SDS011;7379;51.506;11.876;2023-03-01T01:30:29;12.53;;;9.23;;
14584;SDS011;7379;51.506;11.876;2023-03-01T01:32:56;12.00;;;10.10;;
14584;SDS011;7379;51.506;11.876;2023-03-01T01:35:23;11.90;;;9.03;;
14584;SDS011;7379;51.506;11.876;2023-03-01T01:37:50;13.87;;;10.10;;
14584;SDS011;7379;51.506;11.876;2023-03-01T01:40:17;11.63;;;9.30;;
14584;SDS011;7379;51.506;11.876;2023-03-01T01:42:44;12.10;;;9.53;;
14584;SDS011;7379;51.506;11.876;2023-03-01T01:45:26;14.30;;;10.03;;
14584;SDS011;7379;51.506;11.876;2023-03-01T01:47:57;13.30;;;9.57;;
14584;SDS011;7379;51.506;11.876;2023-03-01T01:50:28;13.13;;;9.30;;
14584;SDS011;7379;51.506;11.876;2023-03-01T01:53:02;11.20;;;9.20;;
14584;SDS011;7379;51.506;11.876;2023-03-01T01:55:38;11.47;;;9.83;;
14584;SDS011;7379;51.506;11.876;2023-03-01T01:58:09;13.63;;;10.03;;
14584;SDS011;7379;51.506;11.876;2023-03-01T02:00:38;12.77;;;9.63;;
14584;SDS011;7379;51.506;11.876;2023-03-01T02:03:07;12.03;;;9.87;;
14584;SDS011;7379;51.506;11.876;2023-03-01T02:05:37;11.77;;;9.67;;
14584;SDS011;7379;51.506;11.876;2023-03-01T02:08:08;13.23;;;9.37;;
14584;SDS011;7379;51.506;11.876;2023-03-01T02:10:37;11.77;;;9.37;;
14584;SDS011;7379;51.506;11.876;2023-03-01T02:13:05;13.40;;;9.20;;
14584;SDS011;7379;51.506;11.876;2023-03-01T02:15:33;12.17;;;8.83;;
14584;SDS011;7379;51.506;11.876;2023-03-01T02:18:03;13.30;;;9.50;;
14584;SDS011;7379;51.506;11.876;2023-03-01T02:20:33;11.90;;;9.47;;
14584;SDS011;7379;51.506;11.876;2023-03-01T02:23:05;13.03;;;9.40;;
14584;SDS011;7379;51.506;11.876;2023-03-01T02:25:35;12.47;;;9.23;;
14584;SDS011;7379;51.506;11.876;2023-03-01T02:28:08;10.30;;;8.67;;
14584;SDS011;7379;51.506;11.876;2023-03-01T02:30:46;9.93;;;8.87;;
14584;SDS011;7379;51.506;11.876;2023-03-01T02:33:29;12.67;;;8.97;;
14584;SDS011;7379;51.506;11.876;2023-03-01T02:35:57;10.90;;;8.93;;
14584;SDS011;7379;51.506;11.876;2023-03-01T02:38:26;11.80;;;9.40;;
14584;SDS011;7379;51.506;11.876;2023-03-01T02:40:54;12.90;;;9.03;;
14584;SDS011;7379;51.506;11.876;2023-03-01T02:43:25;11.73;;;9.10;;
14584;SDS011;7379;51.506;11.876;2023-03-01T02:45:57;11.43;;;8.53;;
14584;SDS011;7379;51.506;11.876;2023-03-01T02:48:25;11.33;;;8.50;;
14584;SDS011;7379;51.506;11.876;2023-03-01T02:50:55;11.83;;;8.77;;
14584;SDS011;7379;51.506;11.876;2023-03-01T02:53:33;13.53;;;9.13;;
14584;SDS011;7379;51.506;11.876;2023-03-01T02:56:05;10.43;;;8.70;;
14584;SDS011;7379;51.506;11.876;2023-03-01T02:58:39;11.93;;;8.50;;
14584;SDS011;7379;51.506;11.876;2023-03-01T03:01:13;11.47;;;9.07;;
14584;SDS011;7379;51.506;11.876;2023-03-01T03:03:40;12.17;;;8.97;;
14584;SDS011;7379;51.506;11.876;2023-03-01T03:06:07;10.70;;;8.80;;
14584;SDS011;7379;51.506;11.876;2023-03-01T03:08:34;11.10;;;8.57;;
14584;SDS011;7379;51.506;11.876;2023-03-01T03:11:01;12.53;;;8.87;;
14584;SDS011;7379;51.506;11.876;2023-03-01T03:13:28;12.33;;;9.10;;
14584;SDS011;7379;51.506;11.876;2023-03-01T03:15:57;10.93;;;9.33;;
14584;SDS011;7379;51.506;11.876;2023-03-01T03:18:24;13.40;;;9.23;;
14584;SDS011;7379;51.506;11.876;2023-03-01T03:20:51;11.83;;;9.20;;
14584;SDS011;7379;51.506;11.876;2023-03-01T03:23:19;12.23;;;8.97;;
14584;SDS011;7379;51.506;11.876;2023-03-01T03:25:47;13.67;;;9.73;;
14584;SDS011;7379;51.506;11.876;2023-03-01T03:28:14;12.43;;;9.03;;
14584;SDS011;7379;51.506;11.876;2023-03-01T03:30:42;9.97;;;8.03;;
14584;SDS011;7379;51.506;11.876;2023-03-01T03:33:11;13.10;;;8.77;;
14584;SDS011;7379;51.506;11.876;2023-03-01T03:35:40;10.87;;;8.33;;
14584;SDS011;7379;51.506;11.876;2023-03-01T03:38:09;11.43;;;8.70;;
14584;SDS011;7379;51.506;11.876;2023-03-01T03:40:42;11.67;;;8.77;;
14584;SDS011;7379;51.506;11.876;2023-03-01T03:43:11;12.63;;;9.50;;
14584;SDS011;7379;51.506;11.876;2023-03-01T03:45:39;12.67;;;9.10;;
14584;SDS011;7379;51.506;11.876;2023-03-01T03:48:07;12.00;;;8.17;;
14584;SDS011;7379;51.506;11.876;2023-03-01T03:50:37;13.07;;;9.30;;
14584;SDS011;7379;51.506;11.876;2023-03-01T03:53:05;12.63;;;9.00;;
14584;SDS011;7379;51.506;11.876;2023-03-01T03:55:34;12.33;;;8.47;;
14584;SDS011;7379;51.506;11.876;2023-03-01T03:58:04;13.23;;;9.47;;
14584;SDS011;7379;51.506;11.876;2023-03-01T04:00:33;10.93;;;8.20;;
14584;SDS011;7379;51.506;11.876;2023-03-01T04:03:01;12.07;;;8.20;;
14584;SDS011;7379;51.506;11.876;2023-03-01T04:05:28;11.40;;;8.40;;
14584;SDS011;7379;51.506;11.876;2023-03-01T04:07:58;10.93;;;8.07;;
14584;SDS011;7379;51.506;11.876;2023-03-01T04:10:28;13.23;;;8.50;;
14584;SDS011;7379;51.506;11.876;2023-03-01T04:12:57;11.50;;;8.50;;
14584;SDS011;7379;51.506;11.876;2023-03-01T04:15:24;10.17;;;8.53;;
14584;SDS011;7379;51.506;11.876;2023-03-01T04:17:52;11.47;;;9.00;;
14584;SDS011;7379;51.506;11.876;2023-03-01T04:20:21;12.50;;;8.70;;
14584;SDS011;7379;51.506;11.876;2023-03-01T04:22:50;11.30;;;8.87;;
14584;SDS011;7379;51.506;11.876;2023-03-01T04:25:19;11.83;;;8.63;;
14584;SDS011;7379;51.506;11.876;2023-03-01T04:27:46;11.50;;;8.80;;
14584;SDS011;7379;51.506;11.876;2023-03-01T04:30:13;11.03;;;8.50;;
14584;SDS011;7379;51.506;11.876;2023-03-01T04:32:40;11.47;;;8.73;;
14584;SDS011;7379;51.506;11.876;2023-03-01T04:35:07;12.27;;;8.77;;
14584;SDS011;7379;51.506;11.876;2023-03-01T04:37:35;10.83;;;8.43;;
14584;SDS011;7379;51.506;11.876;2023-03-01T04:40:02;12.43;;;8.60;;
14584;SDS011;7379;51.506;11.876;2023-03-01T04:42:39;11.97;;;8.70;;
14584;SDS011;7379;51.506;11.876;2023-03-01T04:45:06;11.27;;;9.00;;
14584;SDS011;7379;51.506;11.876;2023-03-01T04:47:38;10.83;;;8.57;;
14584;SDS011;7379;51.506;11.876;2023-03-01T04:50:06;11.53;;;8.73;;
14584;SDS011;7379;51.506;11.876;2023-03-01T04:52:33;11.50;;;9.10;;
14584;SDS011;7379;51.506;11.876;2023-03-01T04:55:01;11.20;;;8.47;;
14584;SDS011;7379;51.506;11.876;2023-03-01T04:57:28;11.97;;;9.10;;
14584;SDS011;7379;51.506;11.876;2023-03-01T04:59:56;11.93;;;8.97;;
14584;SDS011;7379;51.506;11.876;2023-03-01T05:02:23;13.10;;;9.03;;
14584;SDS011;7379;51.506;11.876;2023-03-01T05:04:50;11.37;;;9.23;;
14584;SDS011;7379;51.506;11.876;2023-03-01T05:07:17;14.23;;;9.00;;
14584;SDS011;7379;51.506;11.876;2023-03-01T05:09:45;12.50;;;9.10;;
14584;SDS011;7379;51.506;11.876;2023-03-01T05:12:12;10.83;;;8.47;;
14584;SDS011;7379;51.506;11.876;2023-03-01T05:14:39;12.23;;;8.50;;
14584;SDS011;7379;51.506;11.876;2023-03-01T05:17:07;12.60;;;9.03;;
14584;SDS011;7379;51.506;11.876;2023-03-01T05:19:34;11.37;;;8.67;;
14584;SDS011;7379;51.506;11.876;2023-03-01T05:22:01;13.10;;;9.13;;
14584;SDS011;7379;51.506;11.876;2023-03-01T05:24:28;10.77;;;8.57;;
14584;SDS011;7379;51.506;11.876;2023-03-01T05:26:56;11.90;;;9.00;;
14584;SDS011;7379;51.506;11.876;2023-03-01T05:29:24;13.20;;;9.60;;
14584;SDS011;7379;51.506;11.876;2023-03-01T05:31:52;14.07;;;10.27;;
14584;SDS011;7379;51.506;11.876;2023-03-01T05:34:22;14.37;;;9.60;;
14584;SDS011;7379;51.506;11.876;2023-03-01T05:36:50;13.70;;;9.50;;
14584;SDS011;7379;51.506;11.876;2023-03-01T05:39:18;13.40;;;9.97;;
14584;SDS011;7379;51.506;11.876;2023-03-01T05:41:47;11.27;;;9.40;;
14584;SDS011;7379;51.506;11.876;2023-03-01T05:44:14;14.20;;;10.47;;
14584;SDS011;7379;51.506;11.876;2023-03-01T05:46:41;12.70;;;9.50;;
14584;SDS011;7379;51.506;11.876;2023-03-01T05:49:07;15.90;;;10.47;;
14584;SDS011;7379;51.506;11.876;2023-03-01T05:51:36;16.37;;;11.10;;
14584;SDS011;7379;51.506;11.876;2023-03-01T05:54:02;13.53;;;10.23;;
14584;SDS011;7379;51.506;11.876;2023-03-01T05:56:32;13.93;;;10.03;;
14584;SDS011;7379;51.506;11.876;2023-03-01T05:58:59;14.07;;;9.80;;
14584;SDS011;7379;51.506;11.876;2023-03-01T06:01:26;13.67;;;10.80;;
14584;SDS011;7379;51.506;11.876;2023-03-01T06:03:53;12.20;;;9.80;;
14584;SDS011;7379;51.506;11.876;2023-03-01T06:06:19;14.27;;;10.73;;
14584;SDS011;7379;51.506;11.876;2023-03-01T06:08:48;14.77;;;10.50;;
14584;SDS011;7379;51.506;11.876;2023-03-01T06:11:15;14.10;;;10.20;;
14584;SDS011;7379;51.506;11.876;2023-03-01T06:13:41;15.60;;;10.90;;
14584;SDS011;7379;51.506;11.876;2023-03-01T06:16:08;14.87;;;10.70;;
14584;SDS011;7379;51.506;11.876;2023-03-01T06:18:36;17.30;;;11.13;;
14584;SDS011;7379;51.506;11.876;2023-03-01T06:21:04;14.73;;;10.67;;
14584;SDS011;7379;51.506;11.876;2023-03-01T06:23:31;16.13;;;11.43;;
14584;SDS011;7379;51.506;11.876;2023-03-01T06:26:00;14.87;;;10.47;;
14584;SDS011;7379;51.506;11.876;2023-03-01T06:28:26;15.67;;;11.13;;
14584;SDS011;7379;51.506;11.876;2023-03-01T06:30:53;13.37;;;10.17;;
14584;SDS011;7379;51.506;11.876;2023-03-01T06:33:20;14.07;;;10.27;;
14584;SDS011;7379;51.506;11.876;2023-03-01T06:35:49;14.50;;;11.00;;
14584;SDS011;7379;51.506;11.876;2023-03-01T06:38:16;15.80;;;11.50;;
14584;SDS011;7379;51.506;11.876;2023-03-01T06:40:44;14.43;;;10.80;;
14584;SDS011;7379;51.506;11.876;2023-03-01T06:43:12;16.13;;;11.43;;
14584;SDS011;7379;51.506;11.876;2023-03-01T06:45:39;14.13;;;10.73;;
14584;SDS011;7379;51.506;11.876;2023-03-01T06:48:06;17.03;;;12.20;;
14584;SDS011;7379;51.506;11.876;2023-03-01T06:50:35;15.10;;;11.00;;
14584;SDS011;7379;51.506;11.876;2023-03-01T06:53:02;18.47;;;12.37;;
14584;SDS011;7379;51.506;11.876;2023-03-01T06:55:30;17.53;;;12.40;;
14584;SDS011;7379;51.506;11.876;2023-03-01T06:57:57;16.80;;;11.53;;
14584;SDS011;7379;51.506;11.876;2023-03-01T07:00:26;17.10;;;12.30;;
14584;SDS011;7379;51.506;11.876;2023-03-01T07:02:54;18.80;;;11.73;;
14584;SDS011;7379;51.506;11.876;2023-03-01T07:05:23;15.27;;;11.77;;
14584;SDS011;7379;51.506;11.876;2023-03-01T07:07:50;16.57;;;12.13;;
14584;SDS011;7379;51.506;11.876;2023-03-01T07:10:19;16.77;;;12.23;;
14584;SDS011;7379;51.506;11.876;2023-03-01T07:12:45;19.00;;;11.80;;
14584;SDS011;7379;51.506;11.876;2023-03-01T07:15:12;16.47;;;12.23;;
14584;SDS011;7379;51.506;11.876;2023-03-01T07:17:41;18.13;;;11.87;;
14584;SDS011;7379;51.506;11.876;2023-03-01T07:20:10;15.40;;;11.27;;
14584;SDS011;7379;51.506;11.876;2023-03-01T07:22:39;15.37;;;11.30;;
14584;SDS011;7379;51.506;11.876;2023-03-01T07:25:07;15.90;;;11.40;;
14584;SDS011;7379;51.506;11.876;2023-03-01T07:27:34;16.43;;;11.93;;
14584;SDS011;7379;51.506;11.876;2023-03-01T07:30:02;18.10;;;11.97;;
14584;SDS011;7379;51.506;11.876;2023-03-01T07:32:29;16.53;;;11.97;;
14584;SDS011;7379;51.506;11.876;2023-03-01T07:34:57;15.80;;;11.60;;
14584;SDS011;7379;51.506;11.876;2023-03-01T07:37:24;15.20;;;11.60;;
14584;SDS011;7379;51.506;11.876;2023-03-01T07:39:51;13.87;;;10.87;;
14584;SDS011;7379;51.506;11.876;2023-03-01T07:42:18;15.03;;;11.17;;
14584;SDS011;7379;51.506;11.876;2023-03-01T07:44:44;16.13;;;11.50;;
14584;SDS011;7379;51.506;11.876;2023-03-01T07:47:11;17.20;;;11.47;;
14584;SDS011;7379;51.506;11.876;2023-03-01T07:49:38;17.47;;;11.90;;
14584;SDS011;7379;51.506;11.876;2023-03-01T07:52:06;15.03;;;11.40;;
14584;SDS011;7379;51.506;11.876;2023-03-01T07:54:35;15.10;;;11.13;;
14584;SDS011;7379;51.506;11.876;2023-03-01T07:57:02;14.60;;;11.00;;
14584;SDS011;7379;51.506;11.876;2023-03-01T07:59:29;16.60;;;11.47;;
14584;SDS011;7379;51.506;11.876;2023-03-01T08:01:56;13.20;;;10.97;;
14584;SDS011;7379;51.506;11.876;2023-03-01T08:04:23;15.37;;;11.10;;
14584;SDS011;7379;51.506;11.876;2023-03-01T08:06:51;15.47;;;11.30;;
14584;SDS011;7379;51.506;11.876;2023-03-01T08:09:20;15.57;;;10.87;;
14584;SDS011;7379;51.506;11.876;2023-03-01T08:11:48;15.70;;;11.53;;
14584;SDS011;7379;51.506;11.876;2023-03-01T08:14:15;16.20;;;11.17;;
14584;SDS011;7379;51.506;11.876;2023-03-01T08:16:42;15.20;;;11.20;;
14584;SDS011;7379;51.506;11.876;2023-03-01T08:19:09;14.67;;;10.90;;
14584;SDS011;7379;51.506;11.876;2023-03-01T08:21:37;16.17;;;11.00;;
14584;SDS011;7379;51.506;11.876;2023-03-01T08:24:05;14.10;;;11.23;;
14584;SDS011;7379;51.506;11.876;2023-03-01T08:26:34;13.83;;;10.73;;
14584;SDS011;7379;51.506;11.876;2023-03-01T08:29:01;13.97;;;10.60;;
14584;SDS011;7379;51.506;11.876;2023-03-01T08:31:28;16.47;;;11.43;;
14584;SDS011;7379;51.506;11.876;2023-03-01T08:33:58;14.50;;;10.40;;
14584;SDS011;7379;51.506;11.876;2023-03-01T08:36:26;14.47;;;10.80;;
14584;SDS011;7379;51.506;11.876;2023-03-01T08:38:54;12.87;;;10.53;;
14584;SDS011;7379;51.506;11.876;2023-03-01T08:41:21;15.20;;;10.57;;
14584;SDS011;7379;51.506;11.876;2023-03-01T08:43:49;14.17;;;10.87;;
14584;SDS011;7379;51.506;11.876;2023-03-01T08:46:17;16.13;;;10.50;;
14584;SDS011;7379;51.506;11.876;2023-03-01T08:48:44;13.23;;;10.57;;
14584;SDS011;7379;51.506;11.876;2023-03-01T08:51:12;14.03;;;10.63;;
14584;SDS011;7379;51.506;11.876;2023-03-01T08:53:40;14.30;;;10.70;;
14584;SDS011;7379;51.506;11.876;2023-03-01T08:56:07;15.07;;;10.50;;
14584;SDS011;7379;51.506;11.876;2023-03-01T08:58:35;14.73;;;10.73;;
14584;SDS011;7379;51.506;11.876;2023-03-01T09:01:07;15.30;;;10.70;;
14584;SDS011;7379;51.506;11.876;2023-03-01T09:03:35;15.57;;;10.27;;
14584;SDS011;7379;51.506;11.876;2023-03-01T09:06:03;14.30;;;10.07;;
14584;SDS011;7379;51.506;11.876;2023-03-01T09:08:34;15.67;;;10.20;;
14584;SDS011;7379;51.506;11.876;2023-03-01T09:11:01;15.57;;;10.43;;
14584;SDS011;7379;51.506;11.876;2023-03-01T09:13:28;12.87;;;10.10;;
14584;SDS011;7379;51.506;11.876;2023-03-01T09:15:57;13.67;;;10.47;;
14584;SDS011;7379;51.506;11.876;2023-03-01T09:18:25;13.80;;;9.83;;
14584;SDS011;7379;51.506;11.876;2023-03-01T09:20:52;14.13;;;10.60;;
14584;SDS011;7379;51.506;11.876;2023-03-01T09:23:21;13.43;;;10.00;;
14584;SDS011;7379;51.506;11.876;2023-03-01T09:25:48;12.93;;;10.53;;
14584;SDS011;7379;51.506;11.876;2023-03-01T09:28:14;14.47;;;10.30;;
14584;SDS011;7379;51.506;11.876;2023-03-01T09:30:41;13.73;;;10.20;;
14584;SDS011;7379;51.506;11.876;2023-03-01T09:33:08;13.50;;;10.17;;
14584;SDS011;7379;51.506;11.876;2023-03-01T09:35:40;13.43;;;10.00;;
14584;SDS011;7379;51.506;11.876;2023-03-01T09:38:11;13.70;;;9.07;;
14584;SDS011;7379;51.506;11.876;2023-03-01T09:40:41;11.77;;;9.43;;
14584;SDS011;7379;51.506;11.876;2023-03-01T09:43:13;13.37;;;9.83;;
14584;SDS011;7379;51.506;11.876;2023-03-01T09:45:46;14.50;;;9.57;;
14584;SDS011;7379;51.506;11.876;2023-03-01T09:48:16;14.23;;;9.93;;
14584;SDS011;7379;51.506;11.876;2023-03-01T09:50:48;14.70;;;10.40;;
14584;SDS011;7379;51.506;11.876;2023-03-01T09:53:17;12.53;;;9.27;;
14584;SDS011;7379;51.506;11.876;2023-03-01T09:55:47;14.10;;;9.63;;
14584;SDS011;7379;51.506;11.876;2023-03-01T09:58:35;15.60;;;10.07;;
14584;SDS011;7379;51.506;11.876;2023-03-01T10:01:23;11.00;;;8.47;;
14584;SDS011;7379;51.506;11.876;2023-03-01T10:04:03;14.30;;;9.77;;
14584;SDS011;7379;51.506;11.876;2023-03-01T10:06:40;12.50;;;9.83;;
14584;SDS011;7379;51.506;11.876;2023-03-01T10:09:11;12.83;;;9.80;;
14584;SDS011;7379;51.506;11.876;2023-03-01T10:11:41;13.27;;;9.73;;
14584;SDS011;7379;51.506;11.876;2023-03-01T10:14:14;15.27;;;10.20;;
14584;SDS011;7379;51.506;11.876;2023-03-01T10:16:59;13.07;;;9.40;;
14584;SDS011;7379;51.506;11.876;2023-03-01T10:19:30;16.20;;;9.63;;
14584;SDS011;7379;51.506;11.876;2023-03-01T10:22:02;15.33;;;10.23;;
14584;SDS011;7379;51.506;11.876;2023-03-01T10:24:35;16.30;;;9.90;;
14584;SDS011;7379;51.506;11.876;2023-03-01T10:27:04;13.47;;;9.53;;
14584;SDS011;7379;51.506;11.876;2023-03-01T10:29:37;13.87;;;9.67;;
14584;SDS011;7379;51.506;11.876;2023-03-01T10:32:09;13.97;;;9.80;;
14584;SDS011;7379;51.506;11.876;2023-03-01T10:34:37;14.20;;;9.90;;
14584;SDS011;7379;51.506;11.876;2023-03-01T10:37:10;13.00;;;9.40;;
14584;SDS011;7379;51.506;11.876;2023-03-01T10:39:53;13.67;;;9.53;;
14584;SDS011;7379;51.506;11.876;2023-03-01T10:42:24;14.20;;;10.13;;
14584;SDS011;7379;51.506;11.876;2023-03-01T10:44:53;13.00;;;9.97;;
14584;SDS011;7379;51.506;11.876;2023-03-01T10:47:22;14.37;;;10.47;;
14584;SDS011;7379;51.506;11.876;2023-03-01T10:49:55;14.97;;;9.87;;
14584;SDS011;7379;51.506;11.876;2023-03-01T10:52:26;14.80;;;10.20;;
14584;SDS011;7379;51.506;11.876;2023-03-01T10:54:56;15.03;;;10.03;;
14584;SDS011;7379;51.506;11.876;2023-03-01T10:57:27;14.43;;;10.53;;
14584;SDS011;7379;51.506;11.876;2023-03-01T11:00:19;14.30;;;10.37;;
14584;SDS011;7379;51.506;11.876;2023-03-01T11:02:50;13.97;;;10.43;;
14584;SDS011;7379;51.506;11.876;2023-03-01T11:05:29;15.50;;;10.37;;
14584;SDS011;7379;51.506;11.876;2023-03-01T11:08:00;13.97;;;9.97;;
14584;SDS011;7379;51.506;11.876;2023-03-01T11:10:29;13.40;;;10.13;;
14584;SDS011;7379;51.506;11.876;2023-03-01T11:13:07;14.50;;;10.17;;
14584;SDS011;7379;51.506;11.876;2023-03-01T11:15:39;12.20;;;9.93;;
14584;SDS011;7379;51.506;11.876;2023-03-01T11:18:15;14.17;;;10.47;;
14584;SDS011;7379;51.506;11.876;2023-03-01T11:20:45;13.23;;;9.60;;
14584;SDS011;7379;51.506;11.876;2023-03-01T11:23:14;13.77;;;9.77;;
14584;SDS011;7379;51.506;11.876;2023-03-01T11:25:42;13.53;;;9.83;;
14584;SDS011;7379;51.506;11.876;2023-03-01T11:28:14;15.13;;;10.30;;
14584;SDS011;7379;51.506;11.876;2023-03-01T11:30:44;14.10;;;9.50;;
14584;SDS011;7379;51.506;11.876;2023-03-01T11:33:19;13.77;;;9.87;;
14584;SDS011;7379;51.506;11.876;2023-03-01T11:35:55;13.67;;;9.73;;
14584;SDS011;7379;51.506;11.876;2023-03-01T11:38:29;12.33;;;9.33;;
14584;SDS011;7379;51.506;11.876;2023-03-01T11:41:01;13.67;;;9.03;;
14584;SDS011;7379;51.506;11.876;2023-03-01T11:43:33;13.47;;;9.23;;
14584;SDS011;7379;51.506;11.876;2023-03-01T11:49:02;11.93;;;8.53;;
14584;SDS011;7379;51.506;11.876;2023-03-01T11:51:47;12.03;;;8.97;;
14584;SDS011;7379;51.506;11.876;2023-03-01T11:54:24;11.30;;;9.10;;
14584;SDS011;7379;51.506;11.876;2023-03-01T11:57:00;11.00;;;8.70;;
14584;SDS011;7379;51.506;11.876;2023-03-01T11:59:41;12.23;;;8.40;;
14584;SDS011;7379;51.506;11.876;2023-03-01T12:05:22;11.03;;;8.30;;
14584;SDS011;7379;51.506;11.876;2023-03-01T12:08:00;11.57;;;8.17;;
14584;SDS011;7379;51.506;11.876;2023-03-01T12:10:38;10.50;;;7.67;;
14584;SDS011;7379;51.506;11.876;2023-03-01T12:13:21;10.57;;;8.07;;
14584;SDS011;7379;51.506;11.876;2023-03-01T12:16:07;11.43;;;7.80;;
14584;SDS011;7379;51.506;11.876;2023-03-01T12:21:35;12.87;;;8.23;;
14584;SDS011;7379;51.506;11.876;2023-03-01T12:24:22;11.17;;;7.87;;
14584;SDS011;7379;51.506;11.876;2023-03-01T12:27:20;9.53;;;7.53;;
14584;SDS011;7379;51.506;11.876;2023-03-01T12:30:00;10.77;;;7.57;;
14584;SDS011;7379;51.506;11.876;2023-03-01T12:32:44;10.80;;;7.13;;
14584;SDS011;7379;51.506;11.876;2023-03-01T12:35:23;11.30;;;7.20;;
14584;SDS011;7379;51.506;11.876;2023-03-01T12:38:11;11.63;;;7.27;;
14584;SDS011;7379;51.506;11.876;2023-03-01T12:43:51;10.00;;;6.77;;
14584;SDS011;7379;51.506;11.876;2023-03-01T12:46:30;10.37;;;7.17;;
14584;SDS011;7379;51.506;11.876;2023-03-01T12:49:08;8.97;;;6.73;;
14584;SDS011;7379;51.506;11.876;2023-03-01T12:51:39;9.50;;;6.87;;
14584;SDS011;7379;51.506;11.876;2023-03-01T12:54:11;11.10;;;7.00;;
14584;SDS011;7379;51.506;11.876;2023-03-01T12:56:42;9.73;;;7.17;;
14584;SDS011;7379;51.506;11.876;2023-03-01T12:59:19;9.83;;;6.40;;
14584;SDS011;7379;51.506;11.876;2023-03-01T13:01:52;9.57;;;6.83;;
14584;SDS011;7379;51.506;11.876;2023-03-01T13:04:34;10.87;;;6.97;;
14584;SDS011;7379;51.506;11.876;2023-03-01T13:07:11;8.77;;;6.90;;
14584;SDS011;7379;51.506;11.876;2023-03-01T13:09:49;9.00;;;6.43;;
14584;SDS011;7379;51.506;11.876;2023-03-01T13:15:28;8.27;;;6.33;;
14584;SDS011;7379;51.506;11.876;2023-03-01T13:17:59;11.77;;;6.43;;
14584;SDS011;7379;51.506;11.876;2023-03-01T13:20:33;8.60;;;6.27;;
14584;SDS011;7379;51.506;11.876;2023-03-01T13:23:11;9.77;;;5.97;;
14584;SDS011;7379;51.506;11.876;2023-03-01T13:28:53;7.47;;;5.63;;
14584;SDS011;7379;51.506;11.876;2023-03-01T13:37:33;7.17;;;5.50;;
14584;SDS011;7379;51.506;11.876;2023-03-01T13:40:04;7.63;;;5.73;;
14584;SDS011;7379;51.506;11.876;2023-03-01T13:42:50;8.47;;;6.00;;
14584;SDS011;7379;51.506;11.876;2023-03-01T13:45:25;7.17;;;5.63;;
14584;SDS011;7379;51.506;11.876;2023-03-01T13:48:04;6.73;;;5.03;;
14584;SDS011;7379;51.506;11.876;2023-03-01T13:50:37;7.30;;;5.73;;
14584;SDS011;7379;51.506;11.876;2023-03-01T13:53:12;7.33;;;5.40;;
14584;SDS011;7379;51.506;11.876;2023-03-01T13:55:44;7.23;;;5.57;;
14584;SDS011;7379;51.506;11.876;2023-03-01T13:58:19;6.97;;;5.50;;
14584;SDS011;7379;51.506;11.876;2023-03-01T14:00:55;6.10;;;5.27;;
14584;SDS011;7379;51.506;11.876;2023-03-01T14:03:24;6.80;;;5.10;;
14584;SDS011;7379;51.506;11.876;2023-03-01T14:06:02;6.73;;;5.20;;
14584;SDS011;7379;51.506;11.876;2023-03-01T14:08:32;8.30;;;5.20;;
14584;SDS011;7379;51.506;11.876;2023-03-01T14:11:13;6.40;;;5.10;;
14584;SDS011;7379;51.506;11.876;2023-03-01T14:13:58;6.33;;;4.67;;
14584;SDS011;7379;51.506;11.876;2023-03-01T14:16:38;7.50;;;4.77;;
14584;SDS011;7379;51.506;11.876;2023-03-01T14:19:18;6.60;;;5.03;;
14584;SDS011;7379;51.506;11.876;2023-03-01T14:21:49;6.63;;;5.17;;
14584;SDS011;7379;51.506;11.876;2023-03-01T14:24:27;5.83;;;4.90;;
14584;SDS011;7379;51.506;11.876;2023-03-01T14:26:54;7.53;;;5.00;;
14584;SDS011;7379;51.506;11.876;2023-03-01T14:29:24;6.30;;;5.03;;
14584;SDS011;7379;51.506;11.876;2023-03-01T14:31:52;7.53;;;5.20;;
14584;SDS011;7379;51.506;11.876;2023-03-01T14:34:21;6.83;;;4.93;;
14584;SDS011;7379;51.506;11.876;2023-03-01T14:36:49;7.07;;;5.00;;
14584;SDS011;7379;51.506;11.876;2023-03-01T14:39:17;6.17;;;4.90;;
14584;SDS011;7379;51.506;11.876;2023-03-01T14:41:47;5.97;;;4.50;;
14584;SDS011;7379;51.506;11.876;2023-03-01T14:44:15;7.07;;;4.60;;
14584;SDS011;7379;51.506;11.876;2023-03-01T14:46:45;5.77;;;4.40;;
14584;SDS011;7379;51.506;11.876;2023-03-01T14:49:24;6.97;;;4.90;;
14584;SDS011;7379;51.506;11.876;2023-03-01T14:51:59;6.23;;;4.90;;
14584;SDS011;7379;51.506;11.876;2023-03-01T14:54:29;7.00;;;4.70;;
14584;SDS011;7379;51.506;11.876;2023-03-01T14:57:03;5.80;;;4.90;;
14584;SDS011;7379;51.506;11.876;2023-03-01T14:59:32;7.17;;;4.97;;
14584;SDS011;7379;51.506;11.876;2023-03-01T15:02:00;6.53;;;5.13;;
14584;SDS011;7379;51.506;11.876;2023-03-01T15:04:28;6.53;;;4.83;;
14584;SDS011;7379;51.506;11.876;2023-03-01T15:06:57;5.53;;;4.73;;
14584;SDS011;7379;51.506;11.876;2023-03-01T15:09:30;6.50;;;4.60;;
14584;SDS011;7379;51.506;11.876;2023-03-01T15:12:00;6.33;;;4.40;;
14584;SDS011;7379;51.506;11.876;2023-03-01T15:14:47;7.17;;;4.93;;
14584;SDS011;7379;51.506;11.876;2023-03-01T15:17:19;5.87;;;4.53;;